Finn Rock, Oregon
Current Conditions -  °F | °C
As of 8:06 PM on Friday 24 Oct 2014 (Local Time) from KEUG Reporting Station
Haze Haze  
Wind Chill: 52°   Ceiling: 400
Heat Index: 52°   Visibility: 1.5mi
Dew Point: 50°   Wind: 8mph
Humidity: 93%   Direction: 360°N
Pressure: 29.73"   Gusts: NA
Location:  44.1366°N, 122.448°W
Report Text: KEUG 250306Z 36007KT 1 1/2SM BR OVC004 11/10 A2973 RMK AO2 SFC VIS 2 T01110100
Loading
Personal Weather Stations






























Interactive Weather Map
Tropical Storm Tracking
New forecast layout! Learn more

10-Day Weather Forecast

Advertisements
Track Severe Weather on mobile